Time;durP1;ratioP1;P1;durP2;ratioP2;P2;SDS_P1;SDS_P2;PMS_P1;PMS_P2;Temp;Humidity;BMP_temperature;BMP_pressure;BME280_temperature;BME280_humidity;BME280_pressure;Samples;Min_cycle;Max_cycle;Signal;HPM_P1;HPM_P2
2023/06/20 00:01:31;;;;;;;7.05;6.40;;;;;;;21.99;67.06;98547.88;5005034;28;20061;-82
2023/06/20 00:03:57;;;;;;;8.80;6.25;;;;;;;22.59;63.29;98546.59;4989103;28;20483;-83
2023/06/20 00:06:22;;;;;;;7.30;5.80;;;;;;;22.88;62.03;98557.41;4973611;28;20044;-83
2023/06/20 00:08:48;;;;;;;6.47;5.88;;;;;;;22.93;61.88;98549.03;4958001;28;20045;-83
2023/06/20 00:11:14;;;;;;;6.45;5.85;;;;;;;22.72;62.38;98540.91;4982505;28;20034;-83
2023/06/20 00:13:42;;;;;;;6.45;5.85;;;;;;;22.40;64.97;98555.25;4984955;28;20380;-83
2023/06/20 00:16:09;;;;;;;6.00;5.50;;;;;;;22.61;62.65;98547.06;4974602;28;21480;-83
2023/06/20 00:18:34;;;;;;;6.93;6.15;;;;;;;22.86;62.35;98540.59;4992927;28;20034;-83
2023/06/20 00:21:00;;;;;;;6.50;5.80;;;;;;;22.98;61.55;98552.31;4982860;28;20033;-83
2023/06/20 00:23:29;;;;;;;6.80;6.20;;;;;;;23.00;61.63;98552.78;4974859;28;20030;-83
2023/06/20 00:25:58;;;;;;;5.82;5.32;;;;;;;23.03;61.64;98543.94;4981683;28;20088;-83
2023/06/20 00:28:23;;;;;;;6.53;5.93;;;;;;;22.90;62.16;98539.59;4992207;28;20030;-83
2023/06/20 00:30:49;;;;;;;5.75;5.25;;;;;;;22.94;62.30;98553.31;5002535;28;20030;-83
2023/06/20 00:33:18;;;;;;;6.32;5.72;;;;;;;22.88;62.30;98560.13;4991307;28;20501;-82
2023/06/20 00:35:44;;;;;;;6.40;5.85;;;;;;;23.03;62.11;98560.28;4986771;28;20048;-83
2023/06/20 00:38:09;;;;;;;6.80;6.10;;;;;;;22.96;62.10;98559.22;4988285;28;20118;-83
2023/06/20 00:40:34;;;;;;;6.47;5.45;;;;;;;22.90;62.24;98552.41;4989288;28;20064;-83
2023/06/20 00:43:00;;;;;;;6.45;5.82;;;;;;;22.84;62.24;98551.84;5006157;28;20383;-83
2023/06/20 00:45:32;;;;;;;5.80;5.30;;;;;;;22.89;62.66;98575.31;4984536;28;20057;-83
2023/06/20 00:47:59;;;;;;;6.43;5.82;;;;;;;22.81;62.57;98566.09;4985503;28;20038;-83
2023/06/20 00:50:27;;;;;;;5.32;4.93;;;;;;;22.72;62.58;98548.25;4991215;28;20113;-83
2023/06/20 00:52:56;;;;;;;7.13;6.47;;;;;;;22.29;66.04;98570.38;4986248;28;20482;-83
2023/06/20 00:55:22;;;;;;;6.60;5.40;;;;;;;22.41;64.29;98564.22;4985668;28;20518;-83
2023/06/20 00:57:48;;;;;;;5.47;5.05;;;;;;;22.62;63.10;98554.94;4970368;28;20113;-83
2023/06/20 01:00:14;;;;;;;7.40;6.65;;;;;;;22.20;66.63;98556.84;4985454;28;20077;-83
2023/06/20 01:02:46;;;;;;;7.60;6.80;;;;;;;21.93;68.54;98564.72;4973772;28;20046;-83
2023/06/20 01:05:13;;;;;;;7.22;6.30;;;;;;;21.68;69.65;98558.25;4991105;28;20471;-83
2023/06/20 01:07:58;;;;;;;7.88;7.07;;;;;;;21.57;69.60;98557.84;4985821;28;20053;-83
2023/06/20 01:10:47;;;;;;;7.28;6.65;;;;;;;21.78;68.64;98562.50;4984012;28;20340;-83
2023/06/20 01:13:39;;;;;;;7.15;6.47;;;;;;;21.52;68.69;98543.63;4987591;28;20050;-83
2023/06/20 01:16:10;;;;;;;7.28;6.57;;;;;;;21.28;69.27;98543.41;4990259;28;20036;-83
2023/06/20 01:18:45;;;;;;;6.10;5.60;;;;;;;21.43;67.62;98556.44;4990313;28;20022;-83
2023/06/20 01:21:17;;;;;;;8.75;7.85;;;;;;;20.85;70.88;98533.47;4988082;28;20383;-82
2023/06/20 01:24:09;;;;;;;7.22;6.63;;;;;;;20.65;71.57;98536.84;4989656;28;20038;-82
2023/06/20 01:26:45;;;;;;;8.75;7.18;;;;;;;21.25;68.23;98547.56;4982641;28;20081;-83
2023/06/20 01:29:15;;;;;;;8.32;7.55;;;;;;;21.15;69.13;98542.50;4983526;28;20036;-82
2023/06/20 01:31:49;;;;;;;7.13;6.43;;;;;;;20.93;69.17;98543.50;4997207;28;20082;-83
2023/06/20 01:34:24;;;;;;;6.63;6.05;;;;;;;21.16;68.37;98554.97;4988093;28;20282;-83
2023/06/20 01:37:00;;;;;;;8.45;6.85;;;;;;;21.15;68.68;98557.97;4989350;28;20034;-83
2023/06/20 01:39:40;;;;;;;7.60;6.88;;;;;;;21.30;68.17;98558.25;5003135;28;20030;-83
2023/06/20 01:42:06;;;;;;;7.35;6.18;;;;;;;21.61;67.60;98547.91;4987183;28;20113;-83
2023/06/20 01:44:34;;;;;;;8.15;7.35;;;;;;;21.21;68.97;98557.47;4972353;28;20130;-83
2023/06/20 01:47:02;;;;;;;6.47;5.88;;;;;;;21.85;64.96;98535.63;4969653;28;20048;-83
2023/06/20 01:49:28;;;;;;;6.38;5.78;;;;;;;21.98;64.09;98545.47;4971881;28;20100;-83
2023/06/20 01:51:56;;;;;;;7.75;6.18;;;;;;;22.18;63.89;98534.63;4989484;28;20065;-83
2023/06/20 01:54:24;;;;;;;7.90;7.20;;;;;;;21.99;66.83;98552.50;4989473;28;20461;-83
2023/06/20 01:56:51;;;;;;;7.28;6.22;;;;;;;22.01;64.85;98545.63;4988468;28;20030;-83
2023/06/20 01:59:17;;;;;;;6.07;5.38;;;;;;;22.25;64.10;98542.25;4987475;28;20549;-83
2023/06/20 02:01:47;;;;;;;6.68;6.07;;;;;;;22.02;64.37;98540.97;4985254;28;20038;-83
2023/06/20 02:04:16;;;;;;;6.18;5.68;;;;;;;22.33;63.66;98544.91;4987536;28;20045;-83
2023/06/20 02:06:42;;;;;;;10.85;5.53;;;;;;;22.45;63.32;98544.16;4981860;28;20053;-83
2023/06/20 02:09:09;;;;;;;7.80;6.80;;;;;;;21.93;66.99;98532.09;4987339;28;20061;-83
2023/06/20 02:11:35;;;;;;;7.82;7.03;;;;;;;21.62;68.03;98537.84;4987444;28;20026;-83
2023/06/20 02:14:02;;;;;;;7.97;7.18;;;;;;;21.49;69.03;98544.28;4969834;28;20031;-83
2023/06/20 02:16:28;;;;;;;10.57;6.75;;;;;;;21.26;69.55;98529.38;4982189;28;20026;-83
2023/06/20 02:18:54;;;;;;;7.53;6.78;;;;;;;21.26;70.35;98527.44;4989226;28;20065;-83
2023/06/20 02:21:22;;;;;;;7.43;6.82;;;;;;;21.23;68.92;98509.09;4990919;28;20466;-83
2023/06/20 02:23:53;;;;;;;8.90;7.82;;;;;;;21.04;70.22;98526.88;4990292;28;20089;-83
2023/06/20 02:26:24;;;;;;;6.85;6.25;;;;;;;21.07;68.99;98520.81;4988143;28;20108;-83
2023/06/20 02:28:54;;;;;;;7.10;6.45;;;;;;;20.95;69.99;98528.81;4987929;28;20034;-83
2023/06/20 02:31:24;;;;;;;8.80;7.57;;;;;;;20.52;72.38;98520.75;4990161;28;20394;-83
2023/06/20 02:33:52;;;;;;;7.55;6.65;;;;;;;20.56;72.29;98500.00;4985475;28;20035;-82
2023/06/20 02:36:20;;;;;;;9.20;7.47;;;;;;;20.58;72.05;98514.03;4969262;28;20042;-82
2023/06/20 02:38:46;;;;;;;8.98;8.18;;;;;;;20.43;72.04;98503.69;4988076;28;20539;-82
2023/06/20 02:41:11;;;;;;;6.82;6.30;;;;;;;21.05;68.29;98504.88;4971056;28;20031;-83
2023/06/20 02:43:37;;;;;;;8.82;7.97;;;;;;;20.80;70.68;98519.25;4966803;28;20062;-82
2023/06/20 02:46:42;;;;;;;9.07;8.25;;;;;;;20.61;72.03;98514.22;5001101;28;20038;-83
2023/06/20 02:49:24;;;;;;;9.45;7.90;;;;;;;20.67;71.25;98517.53;4974678;28;20046;-83
2023/06/20 02:52:08;;;;;;;8.38;7.57;;;;;;;20.32;73.07;98518.69;4987908;28;20041;-82
2023/06/20 02:55:08;;;;;;;10.48;8.63;;;;;;;20.23;73.40;98507.84;4988241;28;20121;-82
2023/06/20 02:57:37;;;;;;;9.52;8.40;;;;;;;20.39;73.25;98517.09;4987333;28;20045;-83
2023/06/20 03:00:09;;;;;;;7.28;6.57;;;;;;;21.27;67.60;98514.69;4986875;28;20034;-83
2023/06/20 03:02:43;;;;;;;6.65;6.05;;;;;;;21.94;64.93;98522.81;4988555;28;20037;-83
2023/06/20 03:05:11;;;;;;;6.72;6.13;;;;;;;22.06;64.55;98531.81;4981385;28;20038;-83
2023/06/20 03:07:39;;;;;;;6.70;5.57;;;;;;;21.92;64.96;98531.28;4968727;28;20026;-83
2023/06/20 03:10:06;;;;;;;6.60;6.07;;;;;;;22.00;64.49;98532.34;4987967;28;20113;-83
2023/06/20 03:12:31;;;;;;;7.40;6.05;;;;;;;22.10;64.40;98526.53;4986499;28;20288;-83
2023/06/20 03:14:57;;;;;;;9.00;6.43;;;;;;;21.74;66.45;98535.19;4983745;28;20406;-83
2023/06/20 03:17:22;;;;;;;6.78;5.65;;;;;;;21.93;64.95;98532.88;4967536;28;20182;-81
2023/06/20 03:19:47;;;;;;;6.35;5.75;;;;;;;22.21;64.06;98544.81;4979166;28;20038;-81
2023/06/20 03:22:13;;;;;;;6.38;5.88;;;;;;;22.27;63.75;98537.28;4977699;28;20035;-82
2023/06/20 03:24:38;;;;;;;6.95;6.35;;;;;;;22.11;64.38;98550.66;5002675;28;20038;-81
2023/06/20 03:27:04;;;;;;;8.93;8.02;;;;;;;21.42;69.29;98539.38;4989020;28;20066;-81
2023/06/20 03:29:29;;;;;;;7.15;6.45;;;;;;;21.54;67.02;98536.75;4989356;28;20040;-81
2023/06/20 03:31:55;;;;;;;6.35;5.85;;;;;;;21.87;65.05;98544.25;4988747;28;20053;-81
2023/06/20 03:34:20;;;;;;;6.80;6.20;;;;;;;21.51;67.84;98544.75;4988160;28;20092;-81
2023/06/20 03:36:45;;;;;;;8.40;7.60;;;;;;;21.12;70.82;98545.84;4986103;28;20085;-81
2023/06/20 03:39:11;;;;;;;8.23;7.53;;;;;;;20.87;71.78;98533.13;4988117;28;20077;-81
2023/06/20 03:41:36;;;;;;;8.82;7.93;;;;;;;20.78;71.82;98535.06;4968151;28;20022;-81
2023/06/20 03:44:02;;;;;;;7.85;7.18;;;;;;;21.15;68.15;98547.94;4951239;28;20030;-80
2023/06/20 03:46:27;;;;;;;7.93;7.13;;;;;;;21.09;69.05;98553.84;5002440;28;20430;-80
2023/06/20 03:48:52;;;;;;;9.65;7.05;;;;;;;21.85;65.55;98549.22;4983474;28;20035;-80
2023/06/20 03:51:18;;;;;;;6.20;5.70;;;;;;;21.96;65.01;98555.88;4980107;28;20038;-80
2023/06/20 03:53:43;;;;;;;10.95;6.43;;;;;;;22.04;64.69;98555.81;4981794;28;20062;-80
2023/06/20 03:56:09;;;;;;;9.48;8.02;;;;;;;21.76;67.46;98551.97;4990453;28;20042;-80
2023/06/20 03:58:34;;;;;;;8.23;6.65;;;;;;;21.50;67.48;98554.81;4987898;28;20451;-80
2023/06/20 04:00:59;;;;;;;8.35;7.55;;;;;;;21.13;70.92;98557.53;4988914;28;20056;-80
2023/06/20 04:03:24;;;;;;;6.95;6.07;;;;;;;21.30;67.87;98566.41;4985965;28;20490;-80
2023/06/20 04:05:51;;;;;;;6.47;5.97;;;;;;;21.82;65.55;98566.94;4986257;28;21001;-80
2023/06/20 04:08:16;;;;;;;7.25;6.65;;;;;;;22.02;64.86;98579.00;4967069;28;20100;-80
2023/06/20 04:10:42;;;;;;;6.18;5.57;;;;;;;22.03;64.99;98591.50;4982918;28;20034;-80
2023/06/20 04:13:07;;;;;;;6.50;5.93;;;;;;;21.93;65.21;98594.59;4989262;28;20401;-80
2023/06/20 04:15:32;;;;;;;7.07;6.43;;;;;;;21.56;67.02;98607.03;4988176;28;20044;-80
2023/06/20 04:17:58;;;;;;;8.38;7.03;;;;;;;21.67;66.45;98626.50;4970289;28;20038;-79
2023/06/20 04:20:23;;;;;;;7.47;6.82;;;;;;;21.71;66.58;98630.94;4991835;28;20034;-80
2023/06/20 04:22:48;;;;;;;8.02;7.22;;;;;;;21.85;66.29;98634.28;4965535;28;20034;-79
2023/06/20 04:25:15;;;;;;;7.30;6.63;;;;;;;21.71;66.48;98633.66;4983273;28;20042;-80
2023/06/20 04:27:40;;;;;;;9.40;7.03;;;;;;;21.81;66.53;98644.19;4954107;28;20048;-80
2023/06/20 04:30:06;;;;;;;7.00;6.40;;;;;;;21.74;66.92;98643.09;4973816;28;20035;-80
2023/06/20 04:32:32;;;;;;;9.02;6.57;;;;;;;21.78;67.21;98644.00;4990220;28;20482;-80
2023/06/20 04:34:58;;;;;;;13.07;9.23;;;;;;;20.54;78.30;98641.34;4979717;28;20410;-80
2023/06/20 04:37:23;;;;;;;18.60;10.70;;;;;;;20.21;80.20;98636.66;4979986;28;20030;-80
2023/06/20 04:39:49;;;;;;;15.30;11.30;;;;;;;19.52;83.13;98624.78;4978648;28;20034;-80
2023/06/20 04:42:14;;;;;;;19.48;13.25;;;;;;;19.63;83.29;98626.91;4982014;28;20508;-80
2023/06/20 04:44:40;;;;;;;18.30;12.95;;;;;;;19.76;83.86;98626.00;4982243;28;20491;-80
2023/06/20 04:47:05;;;;;;;14.70;10.32;;;;;;;19.41;83.41;98606.13;4979915;28;20190;-80
2023/06/20 04:49:30;;;;;;;14.98;12.15;;;;;;;19.51;84.86;98623.19;4984867;28;20037;-81
2023/06/20 04:51:59;;;;;;;16.30;12.93;;;;;;;19.26;86.49;98611.88;4981728;28;20077;-79
2023/06/20 04:54:24;;;;;;;20.63;13.93;;;;;;;19.38;86.69;98619.47;4973665;28;20042;-79
2023/06/20 04:56:50;;;;;;;16.48;14.55;;;;;;;19.02;88.45;98624.16;4977920;28;20038;-79
2023/06/20 04:59:15;;;;;;;17.73;15.02;;;;;;;18.93;89.06;98620.59;4960845;28;20038;-79
2023/06/20 05:01:41;;;;;;;18.70;14.13;;;;;;;19.15;87.82;98618.69;4974696;28;20042;-79
2023/06/20 05:04:06;;;;;;;13.88;10.25;;;;;;;20.30;79.67;98637.47;4958878;28;20145;-80
2023/06/20 05:06:31;;;;;;;13.25;11.85;;;;;;;20.38;78.56;98645.63;4998197;28;20089;-79
2023/06/20 05:08:57;;;;;;;12.75;10.30;;;;;;;20.28;79.60;98634.28;4983961;28;20030;-79
2023/06/20 05:11:22;;;;;;;16.02;14.30;;;;;;;19.62;85.99;98638.03;4982705;28;20080;-79
2023/06/20 05:13:48;;;;;;;19.15;15.20;;;;;;;19.30;87.96;98642.66;4971402;28;20026;-80
2023/06/20 05:16:13;;;;;;;22.83;16.63;;;;;;;19.12;89.25;98640.94;4985753;28;20026;-79
2023/06/20 05:18:38;;;;;;;21.25;18.48;;;;;;;19.04;89.37;98638.19;4988505;28;20097;-79
2023/06/20 05:21:04;;;;;;;27.27;15.95;;;;;;;19.05;89.13;98637.06;4974822;28;20392;-80
2023/06/20 05:23:30;;;;;;;20.92;15.40;;;;;;;19.05;89.77;98643.28;4970372;28;20030;-80
2023/06/20 05:25:55;;;;;;;22.17;15.10;;;;;;;19.05;88.55;98628.94;4986778;28;20030;-80
2023/06/20 05:28:21;;;;;;;13.82;12.43;;;;;;;19.84;83.58;98629.84;4980565;28;20030;-79
2023/06/20 05:30:46;;;;;;;15.32;11.20;;;;;;;20.79;79.72;98623.50;4978970;28;20037;-79
2023/06/20 05:33:12;;;;;;;17.23;11.15;;;;;;;20.98;78.61;98628.56;4997021;28;20549;-80
2023/06/20 05:35:37;;;;;;;17.30;14.18;;;;;;;20.21;82.72;98633.94;4985244;28;20035;-79
2023/06/20 05:38:03;;;;;;;17.30;12.40;;;;;;;19.79;85.18;98630.78;4957565;28;20084;-79
2023/06/20 05:40:29;;;;;;;15.15;13.15;;;;;;;20.18;82.20;98633.44;4981242;28;20175;-80
2023/06/20 05:42:54;;;;;;;14.43;11.82;;;;;;;20.76;79.37;98630.34;4984781;28;20026;-80
2023/06/20 05:45:19;;;;;;;17.10;14.05;;;;;;;20.12;82.92;98631.19;4995055;28;20044;-80
2023/06/20 05:47:45;;;;;;;18.80;15.00;;;;;;;20.00;84.25;98623.69;4985292;28;20027;-80
2023/06/20 05:50:10;;;;;;;20.20;16.92;;;;;;;19.58;86.18;98637.06;4976113;28;20038;-80
2023/06/20 05:52:36;;;;;;;23.30;17.90;;;;;;;19.05;89.11;98635.16;4986663;28;20030;-80
2023/06/20 05:55:02;;;;;;;15.05;13.52;;;;;;;19.27;87.69;98624.31;4988271;28;20509;-80
2023/06/20 05:57:27;;;;;;;24.73;16.13;;;;;;;19.39;87.95;98627.28;4963158;28;20036;-81
2023/06/20 05:59:53;;;;;;;21.60;15.82;;;;;;;19.14;89.05;98622.50;4966583;28;20034;-81
2023/06/20 06:02:22;;;;;;;29.08;19.65;;;;;;;18.75;92.18;98625.09;4987400;28;20066;-81
2023/06/20 06:04:49;;;;;;;19.90;14.38;;;;;;;19.05;90.34;98608.09;4969621;28;20038;-81
2023/06/20 06:07:14;;;;;;;21.45;19.10;;;;;;;19.05;90.21;98621.63;4994998;28;20129;-81
2023/06/20 06:09:39;;;;;;;25.90;19.60;;;;;;;19.08;90.52;98622.94;4990486;28;20117;-80
2023/06/20 06:12:05;;;;;;;20.77;16.77;;;;;;;19.51;87.96;98615.88;4988654;28;20589;-80
2023/06/20 06:14:31;;;;;;;20.95;13.27;;;;;;;20.14;85.01;98623.53;4963810;28;20043;-81
2023/06/20 06:16:56;;;;;;;19.83;14.50;;;;;;;19.69;87.68;98624.84;4973543;28;20034;-80
2023/06/20 06:19:22;;;;;;;27.50;18.30;;;;;;;19.50;88.68;98618.88;4990522;28;20083;-81
2023/06/20 06:21:47;;;;;;;17.15;15.05;;;;;;;20.07;85.38;98609.69;4975032;28;20045;-81
2023/06/20 06:24:13;;;;;;;20.15;16.10;;;;;;;20.14;85.28;98604.56;4992806;28;20052;-81
2023/06/20 06:26:38;;;;;;;15.32;13.40;;;;;;;20.55;82.99;98607.69;4993204;28;20049;-81
2023/06/20 06:29:06;;;;;;;20.90;16.05;;;;;;;20.32;84.89;98597.31;4991860;28;20106;-81
2023/06/20 06:31:34;;;;;;;15.18;12.93;;;;;;;20.82;82.67;98610.06;4991783;28;20022;-81
2023/06/20 06:34:01;;;;;;;17.48;11.57;;;;;;;21.02;81.77;98605.09;4992216;28;20491;-81
2023/06/20 06:36:33;;;;;;;19.92;17.63;;;;;;;20.86;82.54;98602.88;4991490;28;20030;-81
2023/06/20 06:39:00;;;;;;;16.20;13.40;;;;;;;20.87;81.09;98606.41;4993128;28;20041;-81
2023/06/20 06:41:26;;;;;;;13.88;12.23;;;;;;;20.91;81.26;98597.28;4975350;28;20080;-81
2023/06/20 06:43:52;;;;;;;13.55;12.10;;;;;;;21.10;80.31;98604.31;4991361;28;20053;-81
2023/06/20 06:46:18;;;;;;;12.95;11.52;;;;;;;21.46;79.61;98608.22;4975588;28;20045;-81
2023/06/20 06:48:43;;;;;;;16.02;10.82;;;;;;;21.46;78.79;98602.78;4991762;28;20026;-81
2023/06/20 06:51:09;;;;;;;22.10;17.27;;;;;;;20.64;83.55;98594.91;4991751;28;20030;-80
2023/06/20 06:53:34;;;;;;;18.70;16.75;;;;;;;20.11;86.65;98602.53;4991244;28;20026;-80
2023/06/20 06:55:59;;;;;;;14.57;12.32;;;;;;;20.61;84.05;98597.47;4991799;28;20072;-80
2023/06/20 06:58:25;;;;;;;20.35;17.35;;;;;;;20.46;85.39;98589.81;4991449;28;20034;-81
2023/06/20 07:00:50;;;;;;;24.33;17.98;;;;;;;20.38;86.37;98591.41;4975631;28;20026;-81
2023/06/20 07:03:15;;;;;;;15.10;13.05;;;;;;;20.67;84.03;98590.78;4991409;28;20038;-81
2023/06/20 07:05:41;;;;;;;14.65;12.20;;;;;;;21.08;81.44;98596.47;4975441;28;20041;-81
2023/06/20 07:08:07;;;;;;;17.70;15.90;;;;;;;20.75;84.87;98589.97;4991808;28;20035;-81
2023/06/20 07:10:32;;;;;;;21.35;19.13;;;;;;;19.93;87.52;98600.88;4992116;28;20410;-81
2023/06/20 07:12:57;;;;;;;20.23;18.13;;;;;;;19.94;88.94;98594.34;4992667;28;20030;-80
2023/06/20 07:15:23;;;;;;;14.77;13.27;;;;;;;20.89;82.04;98599.53;4991749;28;20425;-81
2023/06/20 07:17:48;;;;;;;16.38;14.00;;;;;;;21.12;81.46;98605.56;4989615;28;20050;-81
2023/06/20 07:20:14;;;;;;;18.58;16.67;;;;;;;20.73;85.10;98605.75;4991469;28;20053;-81
2023/06/20 07:22:39;;;;;;;14.65;13.10;;;;;;;20.83;83.24;98608.16;4959843;28;20030;-81
2023/06/20 07:25:07;;;;;;;21.17;16.15;;;;;;;21.02;81.93;98605.09;4994786;28;20491;-81
2023/06/20 07:27:33;;;;;;;13.60;12.30;;;;;;;21.40;80.37;98604.09;4993171;28;20061;-81
2023/06/20 07:29:58;;;;;;;15.38;13.82;;;;;;;21.40;80.17;98600.56;4992761;28;20129;-81
2023/06/20 07:32:24;;;;;;;16.20;12.18;;;;;;;21.82;78.31;98607.72;4975905;28;20042;-81
2023/06/20 07:34:49;;;;;;;13.85;12.45;;;;;;;21.83;78.27;98597.69;4993208;28;20038;-82
2023/06/20 07:37:14;;;;;;;13.35;11.63;;;;;;;21.82;78.41;98594.13;4991404;28;20037;-81
2023/06/20 07:39:42;;;;;;;11.60;10.60;;;;;;;21.77;77.83;98594.34;4976206;28;20039;-81
2023/06/20 07:42:09;;;;;;;11.93;10.82;;;;;;;21.88;77.64;98586.63;4991261;28;20038;-81
2023/06/20 07:44:34;;;;;;;15.98;14.38;;;;;;;21.52;82.04;98587.88;4990900;28;20565;-81
2023/06/20 07:47:00;;;;;;;12.35;10.85;;;;;;;21.75;78.65;98593.06;4978568;28;20042;-81
2023/06/20 07:49:25;;;;;;;12.05;10.95;;;;;;;21.96;77.35;98575.72;4994919;28;20494;-81
2023/06/20 07:51:50;;;;;;;14.20;12.85;;;;;;;22.00;78.21;98584.78;4978567;28;20034;-81
2023/06/20 07:54:16;;;;;;;15.10;13.70;;;;;;;21.83;79.70;98587.63;4994519;28;20437;-81
2023/06/20 07:56:41;;;;;;;16.27;13.70;;;;;;;21.38;82.09;98578.38;4995965;28;20104;-81
2023/06/20 07:59:06;;;;;;;16.63;14.02;;;;;;;21.20;81.73;98585.78;4994651;28;20041;-81
2023/06/20 08:01:32;;;;;;;14.63;13.23;;;;;;;21.32;80.71;98585.88;4996307;28;20374;-82
2023/06/20 08:03:57;;;;;;;13.98;12.43;;;;;;;21.72;79.54;98580.13;4995451;28;20049;-82
2023/06/20 08:06:23;;;;;;;11.93;10.63;;;;;;;21.90;78.75;98587.91;4993811;28;20034;-82
2023/06/20 08:08:48;;;;;;;14.82;13.30;;;;;;;21.05;82.37;98582.78;4994376;28;20479;-81
2023/06/20 08:11:13;;;;;;;14.93;13.57;;;;;;;20.95;82.04;98586.59;4977473;28;20037;-81
2023/06/20 08:13:39;;;;;;;15.00;13.60;;;;;;;20.63;82.78;98577.06;4994004;28;20445;-81
2023/06/20 08:16:04;;;;;;;13.45;12.25;;;;;;;20.76;82.94;98572.56;4977919;28;20037;-81
2023/06/20 08:18:29;;;;;;;15.20;13.63;;;;;;;20.73;81.93;98579.44;4978010;28;20030;-81
2023/06/20 08:20:55;;;;;;;12.00;10.82;;;;;;;20.83;81.95;98581.84;4977752;28;20085;-81
2023/06/20 08:23:27;;;;;;;13.38;12.18;;;;;;;20.88;81.77;98587.06;4994896;28;20546;-81
2023/06/20 08:25:56;;;;;;;11.27;10.25;;;;;;;21.37;80.23;98593.06;4994957;28;20026;-81
2023/06/20 08:28:22;;;;;;;11.02;10.00;;;;;;;21.84;78.67;98588.41;4993654;28;20034;-81
2023/06/20 08:30:47;;;;;;;15.43;13.82;;;;;;;21.29;81.39;98586.53;4993156;28;20027;-81
2023/06/20 08:33:13;;;;;;;14.57;12.85;;;;;;;21.57;80.85;98581.47;4993783;28;20547;-81
2023/06/20 08:35:38;;;;;;;17.13;15.40;;;;;;;21.21;82.14;98581.16;4961951;28;20097;-81
2023/06/20 08:38:04;;;;;;;17.05;14.25;;;;;;;21.10;82.63;98569.03;4994040;28;20073;-81
2023/06/20 08:40:30;;;;;;;11.50;10.60;;;;;;;21.55;79.80;98592.69;4993712;28;20054;-81
2023/06/20 08:42:56;;;;;;;11.75;10.55;;;;;;;21.86;78.39;98592.41;4993648;28;20029;-81
2023/06/20 08:45:22;;;;;;;11.00;9.50;;;;;;;22.35;75.76;98598.94;4995607;28;20026;-81
2023/06/20 08:47:47;;;;;;;13.75;12.40;;;;;;;22.14;79.01;98607.09;4993972;28;20031;-81
2023/06/20 08:50:13;;;;;;;12.13;10.88;;;;;;;22.10;77.71;98616.25;4977380;28;20026;-81
2023/06/20 08:52:48;;;;;;;10.55;9.50;;;;;;;22.39;76.00;98619.72;4995022;28;20066;-81
2023/06/20 08:55:15;;;;;;;11.00;9.88;;;;;;;22.22;77.73;98606.25;4994463;28;20073;-81
2023/06/20 08:57:41;;;;;;;11.15;10.05;;;;;;;22.25;78.08;98602.88;4977150;28;20035;-81
2023/06/20 09:00:11;;;;;;;10.55;9.57;;;;;;;22.23;78.33;98591.53;4993984;28;20022;-81
2023/06/20 09:02:37;;;;;;;13.63;12.27;;;;;;;22.36;79.56;98598.63;4993806;28;20018;-81
2023/06/20 09:05:03;;;;;;;14.15;12.85;;;;;;;22.46;81.20;98602.88;4994797;28;20441;-80
2023/06/20 09:07:37;;;;;;;15.57;14.10;;;;;;;22.02;80.50;98592.59;4995641;28;20037;-80
2023/06/20 09:10:04;;;;;;;12.73;11.45;;;;;;;22.43;79.22;98600.03;4993552;28;20030;-80
2023/06/20 09:12:53;;;;;;;10.93;9.80;;;;;;;22.87;76.97;98593.91;4994288;28;20041;-80
2023/06/20 09:15:23;;;;;;;12.20;10.43;;;;;;;23.12;76.41;98587.41;4993219;28;20030;-80
2023/06/20 09:17:51;;;;;;;15.05;13.50;;;;;;;23.06;78.17;98581.38;4990741;28;20026;-80
2023/06/20 09:20:17;;;;;;;10.88;9.30;;;;;;;23.10;76.81;98585.03;4993260;28;20129;-79
2023/06/20 09:22:43;;;;;;;10.27;9.23;;;;;;;23.46;74.53;98567.97;4993723;28;20088;-80
2023/06/20 09:25:10;;;;;;;15.77;14.13;;;;;;;22.89;77.83;98569.88;4995578;28;20030;-80
2023/06/20 09:27:37;;;;;;;14.02;11.20;;;;;;;23.36;78.32;98579.31;4994724;28;20121;-80
2023/06/20 09:30:04;;;;;;;15.38;13.85;;;;;;;22.38;80.23;98581.97;4993999;28;20026;-80
2023/06/20 09:32:42;;;;;;;15.15;13.73;;;;;;;22.88;78.75;98574.53;4993894;28;20022;-80
2023/06/20 09:35:09;;;;;;;15.55;14.00;;;;;;;23.08;77.62;98565.50;4993119;28;20058;-80
2023/06/20 09:37:41;;;;;;;14.55;12.32;;;;;;;23.21;78.27;98560.88;4994252;28;20484;-80
2023/06/20 09:40:09;;;;;;;11.27;10.25;;;;;;;23.77;75.89;98575.59;4993113;28;20057;-80
2023/06/20 09:42:36;;;;;;;12.45;11.23;;;;;;;24.06;74.56;98569.13;4994601;28;20026;-80
2023/06/20 09:45:01;;;;;;;10.65;9.65;;;;;;;24.26;73.29;98566.25;4994075;28;20030;-80
2023/06/20 09:47:27;;;;;;;10.90;10.00;;;;;;;24.16;73.27;98569.44;4992361;28;20034;-80
2023/06/20 09:49:57;;;;;;;11.15;10.15;;;;;;;24.17;73.91;98564.78;4993794;28;20116;-80
2023/06/20 09:52:32;;;;;;;10.50;9.35;;;;;;;24.46;73.04;98567.22;4992522;28;20061;-80
2023/06/20 09:55:00;;;;;;;9.50;8.70;;;;;;;24.41;73.19;98562.00;4977025;28;20053;-80
2023/06/20 09:57:34;;;;;;;14.70;9.82;;;;;;;24.65;72.41;98559.19;4976519;28;20501;-80
2023/06/20 10:00:02;;;;;;;11.20;8.45;;;;;;;24.89;71.52;98550.13;4992497;28;20030;-80
2023/06/20 10:02:30;;;;;;;10.32;9.30;;;;;;;24.97;71.85;98560.09;4993474;28;20034;-81
2023/06/20 10:04:56;;;;;;;11.60;10.50;;;;;;;24.89;71.82;98556.38;4993159;28;20050;-80
2023/06/20 10:07:22;;;;;;;10.80;9.80;;;;;;;25.07;72.01;98552.19;4992408;28;20124;-80
2023/06/20 10:09:48;;;;;;;8.30;7.60;;;;;;;25.26;70.44;98546.84;4991652;28;20093;-80
2023/06/20 10:12:14;;;;;;;9.20;8.48;;;;;;;25.33;70.34;98551.69;4992774;28;20065;-80
2023/06/20 10:14:40;;;;;;;8.68;7.88;;;;;;;25.44;69.90;98560.19;4992115;28;20109;-80
2023/06/20 10:17:07;;;;;;;10.88;9.98;;;;;;;25.38;70.71;98556.88;4992112;28;20121;-80
2023/06/20 10:19:51;;;;;;;10.10;8.23;;;;;;;25.56;69.22;98563.59;4993428;28;20030;-81
2023/06/20 10:22:33;;;;;;;9.85;8.95;;;;;;;25.59;70.93;98560.19;4993008;28;20490;-81
2023/06/20 10:25:11;;;;;;;8.68;7.97;;;;;;;25.84;68.55;98556.06;4993170;28;20026;-81
2023/06/20 10:27:42;;;;;;;8.32;7.63;;;;;;;25.97;68.33;98559.50;4992081;28;20048;-81
2023/06/20 10:30:11;;;;;;;9.18;8.38;;;;;;;26.00;70.16;98558.78;4991760;28;20374;-81
2023/06/20 10:32:57;;;;;;;8.65;7.85;;;;;;;26.37;67.27;98557.28;4993060;28;20374;-81
2023/06/20 10:35:24;;;;;;;8.90;8.10;;;;;;;26.35;68.15;98556.84;4991802;28;20022;-81
2023/06/20 10:37:49;;;;;;;7.95;7.18;;;;;;;26.48;66.72;98558.31;4993293;28;20034;-81
2023/06/20 10:40:31;;;;;;;7.90;7.30;;;;;;;26.67;65.81;98546.53;4975571;28;20026;-81
2023/06/20 10:42:56;;;;;;;8.02;7.35;;;;;;;26.93;65.39;98554.91;4991779;28;20029;-81
2023/06/20 10:45:27;;;;;;;8.38;7.57;;;;;;;27.03;65.49;98542.56;4993109;28;20113;-81
2023/06/20 10:47:53;;;;;;;7.97;7.38;;;;;;;27.03;64.79;98532.41;4975728;28;20034;-81
2023/06/20 10:50:20;;;;;;;8.82;8.02;;;;;;;27.11;64.51;98530.56;4993389;28;20034;-81
2023/06/20 10:52:46;;;;;;;7.95;7.28;;;;;;;27.17;64.94;98529.13;4975703;28;20030;-81
2023/06/20 10:55:28;;;;;;;7.10;6.60;;;;;;;27.25;64.21;98531.63;4992450;28;20397;-81
2023/06/20 10:57:55;;;;;;;8.18;7.43;;;;;;;27.32;63.81;98542.72;4991476;28;20022;-81
2023/06/20 11:00:22;;;;;;;7.43;6.82;;;;;;;27.36;63.68;98518.13;4956092;28;20027;-81
2023/06/20 11:02:50;;;;;;;7.80;7.13;;;;;;;27.31;63.59;98521.16;4972175;28;20030;-81
2023/06/20 11:05:16;;;;;;;7.50;6.90;;;;;;;27.47;63.41;98527.31;4972861;28;20035;-82
2023/06/20 11:07:59;;;;;;;8.05;7.25;;;;;;;27.53;63.15;98525.84;4971976;28;20038;-81
2023/06/20 11:10:30;;;;;;;7.68;7.07;;;;;;;27.13;64.09;98520.06;4972864;28;20446;-81
2023/06/20 11:12:58;;;;;;;9.00;8.20;;;;;;;26.86;65.01;98530.16;4984847;28;20384;-81
2023/06/20 11:15:28;;;;;;;8.13;7.43;;;;;;;27.57;63.59;98532.19;4975051;28;20371;-81
2023/06/20 11:17:55;;;;;;;8.68;7.82;;;;;;;27.86;62.72;98533.41;4989237;28;20022;-80
2023/06/20 11:20:23;;;;;;;7.53;6.82;;;;;;;27.86;62.69;98520.50;4992402;28;20026;-81
2023/06/20 11:22:49;;;;;;;7.60;6.95;;;;;;;27.92;62.37;98527.25;4995155;28;20115;-81
2023/06/20 11:25:28;;;;;;;7.25;6.43;;;;;;;27.91;62.04;98522.13;4996724;28;20022;-81
2023/06/20 11:27:55;;;;;;;10.07;7.78;;;;;;;27.60;62.17;98515.00;4995301;28;20038;-81
2023/06/20 11:30:28;;;;;;;7.95;7.22;;;;;;;27.73;62.57;98513.63;4996123;28;20113;-81